createdAt,value
2022-12-17T00:02:19.690Z,98301.00
2022-12-17T00:07:41.813Z,98315.00
2022-12-17T00:13:06.538Z,98320.00
2022-12-17T00:18:28.372Z,98328.00
2022-12-17T00:23:49.772Z,98329.00
2022-12-17T00:29:11.106Z,98343.00
2022-12-17T00:34:32.514Z,98334.00
2022-12-17T00:39:59.060Z,98352.00
2022-12-17T00:45:23.562Z,98349.00
2022-12-17T00:50:44.730Z,98371.00
2022-12-17T00:56:06.340Z,98360.00
2022-12-17T01:01:28.079Z,98370.00
2022-12-17T01:06:49.619Z,98385.00
2022-12-17T01:12:11.104Z,98368.00
2022-12-17T01:17:37.931Z,98379.00
2022-12-17T01:23:02.317Z,98383.00
2022-12-17T01:28:24.470Z,98387.00
2022-12-17T01:33:45.651Z,98391.00
2022-12-17T01:39:06.950Z,98395.00
2022-12-17T01:45:02.689Z,98400.00
2022-12-17T01:50:25.021Z,98413.00
2022-12-17T01:55:46.828Z,98412.00
2022-12-17T02:01:08.367Z,98419.00
2022-12-17T02:06:46.605Z,98429.00
2022-12-17T02:12:30.695Z,98417.00
2022-12-17T02:17:59.970Z,98430.00
2022-12-17T02:23:54.116Z,98439.00
2022-12-17T02:29:21.405Z,98434.00
2022-12-17T02:34:53.573Z,98438.00
2022-12-17T02:40:15.749Z,98432.00
2022-12-17T02:45:40.418Z,98442.00
2022-12-17T02:51:05.341Z,98440.00
2022-12-17T02:56:26.806Z,98443.00
2022-12-17T03:01:48.363Z,98437.00
2022-12-17T03:07:09.966Z,98439.00
2022-12-17T03:12:31.763Z,98444.00
2022-12-17T03:17:53.060Z,98449.00
2022-12-17T03:23:25.052Z,98445.00
2022-12-17T03:28:46.290Z,98451.00
2022-12-17T03:34:07.640Z,98460.00
2022-12-17T03:39:28.820Z,98463.00
2022-12-17T03:44:50.167Z,98473.00
2022-12-17T03:50:11.509Z,98479.00
2022-12-17T03:55:32.739Z,98475.00
2022-12-17T04:00:54.098Z,98480.00
2022-12-17T04:06:16.010Z,98481.00
2022-12-17T04:11:37.942Z,98490.00
2022-12-17T04:16:59.805Z,98492.00
2022-12-17T04:22:21.225Z,98495.00
2022-12-17T04:27:43.000Z,98495.00
2022-12-17T04:33:04.367Z,98498.00
2022-12-17T04:38:25.812Z,98502.00
2022-12-17T04:43:47.055Z,98512.00
2022-12-17T04:49:08.405Z,98518.00
2022-12-17T04:54:30.247Z,98521.00
2022-12-17T04:59:51.704Z,98537.00
2022-12-17T05:05:13.108Z,98541.00
2022-12-17T05:10:34.625Z,98529.00
2022-12-17T05:15:56.055Z,98554.00
2022-12-17T05:21:18.966Z,98559.00
2022-12-17T05:26:45.754Z,98562.00
2022-12-17T05:32:09.074Z,98566.00
2022-12-17T05:37:30.746Z,98582.00
2022-12-17T05:42:52.025Z,98565.00
2022-12-17T05:48:17.380Z,98586.00
2022-12-17T05:53:39.265Z,98599.00
2022-12-17T05:59:00.844Z,98605.00
2022-12-17T06:04:22.865Z,98615.00
2022-12-17T06:09:44.299Z,98622.00
2022-12-17T06:15:07.610Z,98616.00
2022-12-17T06:20:30.169Z,98625.00
2022-12-17T06:26:02.135Z,98622.00
2022-12-17T06:31:23.638Z,98625.00
2022-12-17T06:36:45.121Z,98636.00
2022-12-17T06:42:06.539Z,98638.00
2022-12-17T06:47:29.300Z,98656.00
2022-12-17T06:52:51.019Z,98665.00
2022-12-17T06:58:19.014Z,98663.00
2022-12-17T07:03:40.454Z,98671.00
2022-12-17T07:09:01.837Z,98673.00
2022-12-17T07:14:23.105Z,98671.00
2022-12-17T07:19:44.432Z,98690.00
2022-12-17T07:25:05.920Z,98702.00
2022-12-17T07:30:27.754Z,98705.00
2022-12-17T07:35:49.131Z,98707.00
2022-12-17T07:41:10.851Z,98713.00
2022-12-17T07:46:33.072Z,98740.00
2022-12-17T07:51:54.673Z,98748.00
2022-12-17T07:57:16.736Z,98739.00
2022-12-17T08:02:38.515Z,98756.00
2022-12-17T08:08:00.644Z,98752.00
2022-12-17T08:13:24.432Z,98759.00
2022-12-17T08:18:46.470Z,98762.00
2022-12-17T08:24:07.794Z,98783.00
2022-12-17T08:29:29.112Z,98783.00
2022-12-17T08:34:50.412Z,98783.00
2022-12-17T08:40:11.897Z,98793.00
2022-12-17T08:45:34.050Z,98795.00
2022-12-17T08:50:55.519Z,98799.00
2022-12-17T08:56:19.487Z,98811.00
2022-12-17T09:01:41.393Z,98812.00
2022-12-17T09:07:03.261Z,98807.00
2022-12-17T09:12:25.017Z,98821.00
2022-12-17T09:17:46.506Z,98804.00
2022-12-17T09:23:08.155Z,98814.00
2022-12-17T09:28:29.754Z,98821.00
2022-12-17T09:33:51.770Z,98818.00
2022-12-17T09:39:13.289Z,98834.00
2022-12-17T09:44:40.722Z,98829.00
2022-12-17T09:50:02.458Z,98836.00
2022-12-17T09:55:38.802Z,98837.00
2022-12-17T10:01:01.236Z,98841.00
2022-12-17T10:06:30.735Z,98842.00
2022-12-17T10:11:54.118Z,98843.00
2022-12-17T10:17:15.504Z,98847.00
2022-12-17T10:22:39.666Z,98851.00
2022-12-17T10:28:01.660Z,98862.00
2022-12-17T10:33:39.311Z,98858.00
2022-12-17T10:39:00.742Z,98863.00
2022-12-17T10:44:37.844Z,98858.00
2022-12-17T10:49:59.321Z,98863.00
2022-12-17T10:55:24.212Z,98856.00
2022-12-17T11:00:52.624Z,98866.00
2022-12-17T11:06:14.776Z,98872.00
2022-12-17T11:11:36.526Z,98887.00
2022-12-17T11:17:17.108Z,98888.00
2022-12-17T11:22:55.995Z,98892.00
2022-12-17T11:28:42.464Z,98895.00
2022-12-17T11:34:21.650Z,98887.00
2022-12-17T11:39:50.565Z,98897.00
2022-12-17T11:45:54.895Z,98891.00
2022-12-17T11:51:34.646Z,98889.00
2022-12-17T11:57:19.004Z,98889.00
2022-12-17T12:02:46.591Z,98896.00
2022-12-17T12:08:43.688Z,98895.00
2022-12-17T12:14:41.045Z,98905.00
2022-12-17T12:20:15.911Z,98906.00
2022-12-17T12:25:57.467Z,98908.00
2022-12-17T12:31:27.949Z,98903.00
2022-12-17T12:36:51.513Z,98908.00
2022-12-17T12:42:20.034Z,98911.00
2022-12-17T12:48:04.183Z,98919.00
2022-12-17T12:53:29.627Z,98920.00
2022-12-17T12:58:53.294Z,98939.00
2022-12-17T13:04:17.671Z,98930.00
2022-12-17T13:09:23.443Z,98927.00
2022-12-17T13:14:29.522Z,98941.00
2022-12-17T13:19:32.543Z,98937.00
2022-12-17T13:24:35.688Z,98940.00
2022-12-17T13:29:39.083Z,98952.00
2022-12-17T13:35:12.705Z,98949.00
2022-12-17T13:40:49.191Z,98953.00
2022-12-17T13:45:53.077Z,98959.00
2022-12-17T13:51:03.265Z,98970.00
2022-12-17T13:56:06.308Z,98979.00
2022-12-17T14:01:12.077Z,98986.00
2022-12-17T14:06:15.375Z,98979.00
2022-12-17T14:11:39.184Z,98995.00
2022-12-17T14:16:48.940Z,99002.00
2022-12-17T14:21:54.396Z,99009.00
2022-12-17T14:27:00.429Z,99011.00
2022-12-17T14:32:24.223Z,99015.00
2022-12-17T14:37:28.522Z,99020.00
2022-12-17T14:42:35.366Z,99027.00
2022-12-17T14:47:39.077Z,99027.00
2022-12-17T14:52:42.087Z,99049.00
2022-12-17T14:57:45.135Z,99049.00
2022-12-17T15:02:54.616Z,99059.00
2022-12-17T15:07:57.919Z,99056.00
2022-12-17T15:13:01.229Z,99063.00
2022-12-17T15:18:04.392Z,99064.00
2022-12-17T15:23:11.402Z,99066.00
2022-12-17T15:28:16.290Z,99064.00
2022-12-17T15:33:19.342Z,99074.00
2022-12-17T15:38:22.321Z,99081.00
2022-12-17T15:43:25.338Z,99086.00
2022-12-17T15:48:28.331Z,99085.00
2022-12-17T15:53:31.446Z,99091.00
2022-12-17T15:58:34.761Z,99092.00
2022-12-17T16:03:38.214Z,99106.00
2022-12-17T16:08:41.542Z,99111.00
2022-12-17T16:13:45.038Z,99107.00
2022-12-17T16:18:48.075Z,99094.00
2022-12-17T16:23:51.084Z,99114.00
2022-12-17T16:28:54.195Z,99095.00
2022-12-17T16:33:57.189Z,99116.00
2022-12-17T16:39:00.156Z,99123.00
2022-12-17T16:44:03.170Z,99111.00
2022-12-17T16:49:18.763Z,99126.00
2022-12-17T16:54:26.073Z,99131.00
2022-12-17T16:59:30.192Z,99129.00
2022-12-17T17:04:34.174Z,99125.00
2022-12-17T17:09:37.675Z,99126.00
2022-12-17T17:14:40.642Z,99120.00
2022-12-17T17:19:43.686Z,99137.00
2022-12-17T17:24:46.756Z,99138.00
2022-12-17T17:29:50.312Z,99149.00
2022-12-17T17:34:53.725Z,99145.00
2022-12-17T17:39:56.729Z,99142.00
2022-12-17T17:44:59.775Z,99153.00
2022-12-17T17:50:02.838Z,99153.00
2022-12-17T17:55:06.346Z,99158.00
2022-12-17T18:00:10.093Z,99158.00
2022-12-17T18:05:13.235Z,99158.00
2022-12-17T18:10:16.332Z,99152.00
2022-12-17T18:15:19.365Z,99161.00
2022-12-17T18:20:22.350Z,99173.00
2022-12-17T18:25:25.578Z,99178.00
2022-12-17T18:30:28.598Z,99169.00
2022-12-17T18:35:31.692Z,99174.00
2022-12-17T18:40:36.563Z,99174.00
2022-12-17T18:45:39.634Z,99203.00
2022-12-17T18:50:42.671Z,99193.00
2022-12-17T18:55:45.739Z,99193.00
2022-12-17T19:00:50.620Z,99208.00
2022-12-17T19:05:54.421Z,99202.00
2022-12-17T19:11:03.499Z,99198.00
2022-12-17T19:16:12.792Z,99206.00
2022-12-17T19:21:15.870Z,99209.00
2022-12-17T19:26:21.618Z,99215.00
2022-12-17T19:31:28.991Z,99208.00
2022-12-17T19:36:34.902Z,99208.00
2022-12-17T19:41:37.931Z,99231.00
2022-12-17T19:46:41.476Z,99230.00
2022-12-17T19:51:45.093Z,99233.00
2022-12-17T19:56:48.113Z,99229.00
2022-12-17T20:01:51.252Z,99229.00
2022-12-17T20:06:55.302Z,99239.00
2022-12-17T20:11:58.291Z,99248.00
2022-12-17T20:17:02.849Z,99254.00
2022-12-17T20:22:06.918Z,99265.00
2022-12-17T20:27:11.129Z,99256.00
2022-12-17T20:32:14.448Z,99276.00
2022-12-17T20:37:17.587Z,99280.00
2022-12-17T20:42:20.658Z,99268.00
2022-12-17T20:47:23.837Z,99262.00
2022-12-17T20:52:26.894Z,99273.00
2022-12-17T20:57:29.938Z,99275.00
2022-12-17T21:02:33.183Z,99273.00
2022-12-17T21:07:36.435Z,99278.00
2022-12-17T21:12:57.885Z,99278.00
2022-12-17T21:18:01.030Z,99288.00
2022-12-17T21:23:04.192Z,99308.00
2022-12-17T21:28:07.165Z,99300.00
2022-12-17T21:33:10.248Z,99297.00
2022-12-17T21:38:13.348Z,99314.00
2022-12-17T21:43:16.363Z,99314.00
2022-12-17T21:48:19.433Z,99328.00
2022-12-17T21:53:23.039Z,99324.00
2022-12-17T21:58:26.393Z,99319.00
2022-12-17T22:03:30.734Z,99323.00
2022-12-17T22:08:33.921Z,99321.00
2022-12-17T22:14:05.022Z,99310.00
2022-12-17T22:19:13.199Z,99300.00
2022-12-17T22:24:19.956Z,99328.00
2022-12-17T22:29:41.286Z,99327.00
2022-12-17T22:35:51.368Z,99323.00
2022-12-17T22:44:02.295Z,99331.00
2022-12-17T22:45:33.534Z,99331.00
2022-12-17T22:50:38.890Z,99338.00
2022-12-17T22:55:55.111Z,99341.00
2022-12-17T23:01:00.701Z,99344.00
2022-12-17T23:06:08.661Z,99350.00
2022-12-17T23:11:14.589Z,99350.00
2022-12-17T23:16:18.157Z,99344.00
2022-12-17T23:21:26.016Z,99336.00
2022-12-17T23:26:32.476Z,99340.00
2022-12-17T23:31:40.515Z,99357.00
2022-12-17T23:36:43.669Z,99374.00
2022-12-17T23:41:46.682Z,99363.00
2022-12-17T23:46:49.763Z,99363.00
2022-12-17T23:51:52.872Z,99369.00
2022-12-17T23:56:55.985Z,99366.00
